sensor_id;sensor_type;location;lat;lon;timestamp;pressure;altitude;pressure_sealevel;temperature;humidity
23241;BME280;11789;53.482;9.862;2024-02-14T00:00:38;101647.44;;;4.88;100.00
23241;BME280;11789;53.482;9.862;2024-02-14T00:03:03;101650.84;;;4.87;100.00
23241;BME280;11789;53.482;9.862;2024-02-14T00:05:29;101648.28;;;4.87;100.00
23241;BME280;11789;53.482;9.862;2024-02-14T00:07:54;101641.34;;;4.84;100.00
23241;BME280;11789;53.482;9.862;2024-02-14T00:10:20;101642.38;;;4.89;100.00
23241;BME280;11789;53.482;9.862;2024-02-14T00:12:45;101639.69;;;4.86;100.00
23241;BME280;11789;53.482;9.862;2024-02-14T00:15:11;101635.34;;;4.84;100.00
23241;BME280;11789;53.482;9.862;2024-02-14T00:17:37;101639.47;;;4.80;100.00
23241;BME280;11789;53.482;9.862;2024-02-14T00:20:03;101639.41;;;4.77;100.00
23241;BME280;11789;53.482;9.862;2024-02-14T00:22:29;101633.50;;;4.80;100.00
23241;BME280;11789;53.482;9.862;2024-02-14T00:24:55;101633.53;;;4.81;100.00
23241;BME280;11789;53.482;9.862;2024-02-14T00:27:20;101640.47;;;4.84;100.00
23241;BME280;11789;53.482;9.862;2024-02-14T00:29:46;101643.03;;;4.84;100.00
23241;BME280;11789;53.482;9.862;2024-02-14T00:32:12;101638.78;;;4.84;100.00
23241;BME280;11789;53.482;9.862;2024-02-14T00:34:38;101638.81;;;4.86;100.00
23241;BME280;11789;53.482;9.862;2024-02-14T00:37:03;101632.94;;;4.88;100.00
23241;BME280;11789;53.482;9.862;2024-02-14T00:39:29;101625.06;;;4.82;100.00
23241;BME280;11789;53.482;9.862;2024-02-14T00:41:54;101621.62;;;4.82;100.00
23241;BME280;11789;53.482;9.862;2024-02-14T00:44:21;101620.63;;;4.78;100.00
23241;BME280;11789;53.482;9.862;2024-02-14T00:46:46;101618.28;;;4.84;100.00
23241;BME280;11789;53.482;9.862;2024-02-14T00:49:13;101616.63;;;4.86;100.00
23241;BME280;11789;53.482;9.862;2024-02-14T00:51:39;101616.59;;;4.85;100.00
23241;BME280;11789;53.482;9.862;2024-02-14T00:54:08;101609.72;;;4.84;100.00
23241;BME280;11789;53.482;9.862;2024-02-14T00:56:33;101611.38;;;4.82;100.00
23241;BME280;11789;53.482;9.862;2024-02-14T00:59:00;101612.28;;;4.84;100.00
23241;BME280;11789;53.482;9.862;2024-02-14T01:01:26;101614.00;;;4.83;100.00
23241;BME280;11789;53.482;9.862;2024-02-14T01:03:51;101616.50;;;4.82;100.00
23241;BME280;11789;53.482;9.862;2024-02-14T01:06:17;101609.56;;;4.79;100.00
23241;BME280;11789;53.482;9.862;2024-02-14T01:08:43;101615.59;;;4.81;100.00
23241;BME280;11789;53.482;9.862;2024-02-14T01:11:09;101618.16;;;4.81;100.00
23241;BME280;11789;53.482;9.862;2024-02-14T01:13:35;101622.25;;;4.76;100.00
23241;BME280;11789;53.482;9.862;2024-02-14T01:16:00;101617.06;;;4.73;100.00
23241;BME280;11789;53.482;9.862;2024-02-14T01:18:25;101613.53;;;4.71;100.00
23241;BME280;11789;53.482;9.862;2024-02-14T01:20:51;101609.94;;;4.66;100.00
23241;BME280;11789;53.482;9.862;2024-02-14T01:23:16;101610.69;;;4.62;100.00
23241;BME280;11789;53.482;9.862;2024-02-14T01:25:42;101609.66;;;4.57;100.00
23241;BME280;11789;53.482;9.862;2024-02-14T01:28:09;101602.84;;;4.57;100.00
23241;BME280;11789;53.482;9.862;2024-02-14T01:30:34;101599.25;;;4.52;100.00
23241;BME280;11789;53.482;9.862;2024-02-14T01:33:01;101600.81;;;4.49;100.00
23241;BME280;11789;53.482;9.862;2024-02-14T01:35:29;101592.09;;;4.43;100.00
23241;BME280;11789;53.482;9.862;2024-02-14T01:37:55;101587.69;;;4.39;100.00
23241;BME280;11789;53.482;9.862;2024-02-14T01:40:20;101585.81;;;4.35;100.00
23241;BME280;11789;53.482;9.862;2024-02-14T01:42:46;101586.53;;;4.31;100.00
23241;BME280;11789;53.482;9.862;2024-02-14T01:45:11;101576.19;;;4.28;100.00
23241;BME280;11789;53.482;9.862;2024-02-14T01:47:37;101577.75;;;4.25;100.00
23241;BME280;11789;53.482;9.862;2024-02-14T01:50:06;101578.41;;;4.19;100.00
23241;BME280;11789;53.482;9.862;2024-02-14T01:52:34;101569.81;;;4.17;100.00
23241;BME280;11789;53.482;9.862;2024-02-14T01:55:02;101560.31;;;4.14;100.00
23241;BME280;11789;53.482;9.862;2024-02-14T01:57:31;101557.75;;;4.14;100.00
23241;BME280;11789;53.482;9.862;2024-02-14T01:59:58;101561.12;;;4.13;100.00
23241;BME280;11789;53.482;9.862;2024-02-14T02:02:25;101559.41;;;4.12;100.00
23241;BME280;11789;53.482;9.862;2024-02-14T02:04:51;101561.00;;;4.10;100.00
23241;BME280;11789;53.482;9.862;2024-02-14T02:07:17;101552.37;;;4.07;100.00
23241;BME280;11789;53.482;9.862;2024-02-14T02:09:45;101546.31;;;4.05;100.00
23241;BME280;11789;53.482;9.862;2024-02-14T02:12:10;101544.56;;;4.04;100.00
23241;BME280;11789;53.482;9.862;2024-02-14T02:14:36;101543.72;;;4.03;100.00
23241;BME280;11789;53.482;9.862;2024-02-14T02:17:02;101547.03;;;4.01;100.00
23241;BME280;11789;53.482;9.862;2024-02-14T02:19:30;101539.25;;;3.98;100.00
23241;BME280;11789;53.482;9.862;2024-02-14T02:21:56;101542.72;;;4.00;100.00
23241;BME280;11789;53.482;9.862;2024-02-14T02:24:21;101540.97;;;3.99;100.00
23241;BME280;11789;53.482;9.862;2024-02-14T02:26:47;101534.16;;;3.99;100.00
23241;BME280;11789;53.482;9.862;2024-02-14T02:29:12;101525.53;;;3.96;100.00
23241;BME280;11789;53.482;9.862;2024-02-14T02:31:37;101528.87;;;3.95;100.00
23241;BME280;11789;53.482;9.862;2024-02-14T02:34:03;101524.59;;;3.94;100.00
23241;BME280;11789;53.482;9.862;2024-02-14T02:36:28;101515.19;;;3.93;100.00
23241;BME280;11789;53.482;9.862;2024-02-14T02:38:56;101509.25;;;3.94;100.00
23241;BME280;11789;53.482;9.862;2024-02-14T02:41:22;101514.34;;;3.94;100.00
23241;BME280;11789;53.482;9.862;2024-02-14T02:43:47;101498.09;;;3.92;100.00
23241;BME280;11789;53.482;9.862;2024-02-14T02:46:15;101497.31;;;3.94;100.00
23241;BME280;11789;53.482;9.862;2024-02-14T02:48:40;101499.97;;;3.96;100.00
23241;BME280;11789;53.482;9.862;2024-02-14T02:51:06;101503.44;;;3.98;100.00
23241;BME280;11789;53.482;9.862;2024-02-14T02:53:32;101497.41;;;3.96;100.00
23241;BME280;11789;53.482;9.862;2024-02-14T02:55:57;101502.50;;;3.96;100.00
23241;BME280;11789;53.482;9.862;2024-02-14T02:58:24;101497.41;;;3.96;100.00
23241;BME280;11789;53.482;9.862;2024-02-14T03:00:50;101491.34;;;3.94;100.00
23241;BME280;11789;53.482;9.862;2024-02-14T03:03:15;101491.34;;;3.94;100.00
23241;BME280;11789;53.482;9.862;2024-02-14T03:05:44;101487.87;;;3.92;100.00
23241;BME280;11789;53.482;9.862;2024-02-14T03:08:10;101498.97;;;3.92;100.00
23241;BME280;11789;53.482;9.862;2024-02-14T03:10:39;101493.84;;;3.92;100.00
23241;BME280;11789;53.482;9.862;2024-02-14T03:13:06;101489.59;;;3.93;100.00
23241;BME280;11789;53.482;9.862;2024-02-14T03:15:34;101481.00;;;3.90;100.00
23241;BME280;11789;53.482;9.862;2024-02-14T03:17:59;101478.53;;;3.94;100.00
23241;BME280;11789;53.482;9.862;2024-02-14T03:20:24;101469.12;;;3.93;100.00
23241;BME280;11789;53.482;9.862;2024-02-14T03:22:50;101471.75;;;3.94;100.00
23241;BME280;11789;53.482;9.862;2024-02-14T03:25:19;101462.38;;;3.95;100.00
23241;BME280;11789;53.482;9.862;2024-02-14T03:27:46;101467.63;;;3.98;100.00
23241;BME280;11789;53.482;9.862;2024-02-14T03:30:18;101460.84;;;4.00;100.00
23241;BME280;11789;53.482;9.862;2024-02-14T03:32:44;101465.88;;;3.97;100.00
23241;BME280;11789;53.482;9.862;2024-02-14T03:35:10;101452.16;;;3.95;100.00
23241;BME280;11789;53.482;9.862;2024-02-14T03:37:37;101437.56;;;3.92;100.00
23241;BME280;11789;53.482;9.862;2024-02-14T03:40:05;101441.91;;;3.95;100.00
23241;BME280;11789;53.482;9.862;2024-02-14T03:42:32;101433.44;;;3.96;100.00
23241;BME280;11789;53.482;9.862;2024-02-14T03:44:58;101435.06;;;3.94;100.00
23241;BME280;11789;53.482;9.862;2024-02-14T03:47:34;101436.87;;;3.96;100.00
23241;BME280;11789;53.482;9.862;2024-02-14T03:50:00;101433.44;;;3.96;100.00
23241;BME280;11789;53.482;9.862;2024-02-14T03:52:25;101440.28;;;3.97;100.00
23241;BME280;11789;53.482;9.862;2024-02-14T03:54:51;101429.94;;;3.94;100.00
23241;BME280;11789;53.482;9.862;2024-02-14T03:57:17;101431.75;;;3.96;100.00
23241;BME280;11789;53.482;9.862;2024-02-14T03:59:44;101434.34;;;3.98;100.00
23241;BME280;11789;53.482;9.862;2024-02-14T04:02:09;101442.03;;;3.98;100.00
23241;BME280;11789;53.482;9.862;2024-02-14T04:04:36;101440.19;;;3.94;100.00
23241;BME280;11789;53.482;9.862;2024-02-14T04:07:02;101435.88;;;3.93;100.00
23241;BME280;11789;53.482;9.862;2024-02-14T04:09:28;101432.53;;;3.95;100.00
23241;BME280;11789;53.482;9.862;2024-02-14T04:11:54;101436.06;;;3.97;100.00
23241;BME280;11789;53.482;9.862;2024-02-14T04:14:19;101425.69;;;3.94;100.00
23241;BME280;11789;53.482;9.862;2024-02-14T04:16:44;101429.94;;;3.94;100.00
23241;BME280;11789;53.482;9.862;2024-02-14T04:19:10;101430.81;;;3.94;100.00
23241;BME280;11789;53.482;9.862;2024-02-14T04:21:37;101423.09;;;3.93;100.00
23241;BME280;11789;53.482;9.862;2024-02-14T04:24:03;101424.00;;;3.95;100.00
23241;BME280;11789;53.482;9.862;2024-02-14T04:26:29;101412.97;;;3.96;100.00
23241;BME280;11789;53.482;9.862;2024-02-14T04:28:54;101412.87;;;3.93;100.00
23241;BME280;11789;53.482;9.862;2024-02-14T04:31:20;101408.62;;;3.93;100.00
23241;BME280;11789;53.482;9.862;2024-02-14T04:33:46;101405.31;;;3.96;100.00
23241;BME280;11789;53.482;9.862;2024-02-14T04:36:20;101400.19;;;3.96;100.00
23241;BME280;11789;53.482;9.862;2024-02-14T04:38:46;101401.97;;;3.98;100.00
23241;BME280;11789;53.482;9.862;2024-02-14T04:41:12;101393.44;;;3.98;100.00
23241;BME280;11789;53.482;9.862;2024-02-14T04:43:38;101388.31;;;3.98;100.00
23241;BME280;11789;53.482;9.862;2024-02-14T04:46:04;101386.78;;;4.03;100.00
23241;BME280;11789;53.482;9.862;2024-02-14T04:48:32;101373.16;;;4.04;100.00
23241;BME280;11789;53.482;9.862;2024-02-14T04:50:58;101380.84;;;4.04;100.00
23241;BME280;11789;53.482;9.862;2024-02-14T04:53:24;101370.59;;;4.04;100.00
23241;BME280;11789;53.482;9.862;2024-02-14T04:55:50;101373.19;;;4.05;100.00
23241;BME280;11789;53.482;9.862;2024-02-14T04:58:15;101376.66;;;4.06;100.00
23241;BME280;11789;53.482;9.862;2024-02-14T05:00:41;101375.84;;;4.07;100.00
23241;BME280;11789;53.482;9.862;2024-02-14T05:03:07;101375.06;;;4.09;100.00
23241;BME280;11789;53.482;9.862;2024-02-14T05:05:35;101369.06;;;4.09;100.00
23241;BME280;11789;53.482;9.862;2024-02-14T05:08:01;101364.06;;;4.12;100.00
23241;BME280;11789;53.482;9.862;2024-02-14T05:10:27;101363.25;;;4.13;100.00
23241;BME280;11789;53.482;9.862;2024-02-14T05:12:54;101356.44;;;4.13;100.00
23241;BME280;11789;53.482;9.862;2024-02-14T05:15:19;101360.88;;;4.19;100.00
23241;BME280;11789;53.482;9.862;2024-02-14T05:17:45;101352.28;;;4.17;100.00
23241;BME280;11789;53.482;9.862;2024-02-14T05:20:11;101351.63;;;4.23;100.00
23241;BME280;11789;53.482;9.862;2024-02-14T05:22:37;101355.09;;;4.25;100.00
23241;BME280;11789;53.482;9.862;2024-02-14T05:25:03;101351.72;;;4.26;100.00
23241;BME280;11789;53.482;9.862;2024-02-14T05:27:32;101344.09;;;4.27;100.00
23241;BME280;11789;53.482;9.862;2024-02-14T05:29:58;101345.87;;;4.30;100.00
23241;BME280;11789;53.482;9.862;2024-02-14T05:32:24;101346.84;;;4.33;100.00
23241;BME280;11789;53.482;9.862;2024-02-14T05:34:50;101345.16;;;4.34;100.00
23241;BME280;11789;53.482;9.862;2024-02-14T05:37:16;101347.75;;;4.35;100.00
23241;BME280;11789;53.482;9.862;2024-02-14T05:39:41;101349.59;;;4.39;100.00
23241;BME280;11789;53.482;9.862;2024-02-14T05:42:07;101343.66;;;4.40;100.00
23241;BME280;11789;53.482;9.862;2024-02-14T05:44:32;101342.88;;;4.41;100.00
23241;BME280;11789;53.482;9.862;2024-02-14T05:46:58;101346.22;;;4.40;100.00
23241;BME280;11789;53.482;9.862;2024-02-14T05:49:23;101336.81;;;4.39;100.00
23241;BME280;11789;53.482;9.862;2024-02-14T05:51:50;101336.03;;;4.42;100.00
23241;BME280;11789;53.482;9.862;2024-02-14T05:54:17;101338.66;;;4.43;100.00
23241;BME280;11789;53.482;9.862;2024-02-14T05:56:43;101339.44;;;4.41;100.00
23241;BME280;11789;53.482;9.862;2024-02-14T05:59:09;101328.37;;;4.42;100.00
23241;BME280;11789;53.482;9.862;2024-02-14T06:01:35;101331.00;;;4.45;100.00
23241;BME280;11789;53.482;9.862;2024-02-14T06:04:00;101340.44;;;4.46;100.00
23241;BME280;11789;53.482;9.862;2024-02-14T06:06:26;101336.13;;;4.45;100.00
23241;BME280;11789;53.482;9.862;2024-02-14T06:08:51;101333.56;;;4.45;100.00
23241;BME280;11789;53.482;9.862;2024-02-14T06:11:17;101330.31;;;4.51;100.00
23241;BME280;11789;53.482;9.862;2024-02-14T06:13:49;101332.09;;;4.52;100.00
23241;BME280;11789;53.482;9.862;2024-02-14T06:16:14;101324.41;;;4.52;100.00
23241;BME280;11789;53.482;9.862;2024-02-14T06:18:40;101327.00;;;4.53;100.00
23241;BME280;11789;53.482;9.862;2024-02-14T06:21:06;101320.16;;;4.52;100.00
23241;BME280;11789;53.482;9.862;2024-02-14T06:23:31;101324.47;;;4.55;100.00
23241;BME280;11789;53.482;9.862;2024-02-14T06:25:58;101321.87;;;4.53;100.00
23241;BME280;11789;53.482;9.862;2024-02-14T06:28:24;101327.91;;;4.55;100.00
23241;BME280;11789;53.482;9.862;2024-02-14T06:30:49;101328.78;;;4.56;100.00
23241;BME280;11789;53.482;9.862;2024-02-14T06:33:15;101328.03;;;4.58;100.00
23241;BME280;11789;53.482;9.862;2024-02-14T06:35:40;101334.03;;;4.60;100.00
23241;BME280;11789;53.482;9.862;2024-02-14T06:38:06;101331.63;;;4.65;100.00
23241;BME280;11789;53.482;9.862;2024-02-14T06:40:32;101327.28;;;4.62;100.00
23241;BME280;11789;53.482;9.862;2024-02-14T06:42:58;101324.78;;;4.64;100.00
23241;BME280;11789;53.482;9.862;2024-02-14T06:45:28;101330.78;;;4.66;100.00
23241;BME280;11789;53.482;9.862;2024-02-14T06:47:53;101335.06;;;4.65;100.00
23241;BME280;11789;53.482;9.862;2024-02-14T06:50:19;101331.78;;;4.69;100.00
23241;BME280;11789;53.482;9.862;2024-02-14T06:52:45;101332.75;;;4.73;100.00
23241;BME280;11789;53.482;9.862;2024-02-14T06:55:11;101337.03;;;4.74;100.00
23241;BME280;11789;53.482;9.862;2024-02-14T06:57:36;101332.78;;;4.75;100.00
23241;BME280;11789;53.482;9.862;2024-02-14T07:00:03;101332.91;;;4.79;100.00
23241;BME280;11789;53.482;9.862;2024-02-14T07:02:31;101332.22;;;4.85;100.00
23241;BME280;11789;53.482;9.862;2024-02-14T07:04:56;101331.41;;;4.86;100.00
23241;BME280;11789;53.482;9.862;2024-02-14T07:07:22;101331.41;;;4.86;100.00
23241;BME280;11789;53.482;9.862;2024-02-14T07:09:47;101328.03;;;4.87;100.00
23241;BME280;11789;53.482;9.862;2024-02-14T07:12:12;101330.69;;;4.90;100.00
23241;BME280;11789;53.482;9.862;2024-02-14T07:14:38;101330.66;;;4.88;100.00
23241;BME280;11789;53.482;9.862;2024-02-14T07:17:03;101330.72;;;4.91;100.00
23241;BME280;11789;53.482;9.862;2024-02-14T07:19:29;101330.91;;;4.98;100.00
23241;BME280;11789;53.482;9.862;2024-02-14T07:21:54;101333.56;;;5.01;100.00
23241;BME280;11789;53.482;9.862;2024-02-14T07:24:20;101330.22;;;5.03;100.00
23241;BME280;11789;53.482;9.862;2024-02-14T07:26:45;101332.84;;;5.06;100.00
23241;BME280;11789;53.482;9.862;2024-02-14T07:29:11;101333.00;;;5.11;100.00
23241;BME280;11789;53.482;9.862;2024-02-14T07:31:36;101335.63;;;5.12;100.00
23241;BME280;11789;53.482;9.862;2024-02-14T07:34:02;101332.31;;;5.16;100.00
23241;BME280;11789;53.482;9.862;2024-02-14T07:36:29;101329.00;;;5.20;100.00
23241;BME280;11789;53.482;9.862;2024-02-14T07:38:54;101333.41;;;5.25;100.00
23241;BME280;11789;53.482;9.862;2024-02-14T07:41:20;101324.84;;;5.24;100.00
23241;BME280;11789;53.482;9.862;2024-02-14T07:43:45;101330.06;;;5.27;100.00
23241;BME280;11789;53.482;9.862;2024-02-14T07:46:11;101328.41;;;5.29;100.00
23241;BME280;11789;53.482;9.862;2024-02-14T07:48:37;101322.56;;;5.35;100.00
23241;BME280;11789;53.482;9.862;2024-02-14T07:51:07;101325.09;;;5.33;100.00
23241;BME280;11789;53.482;9.862;2024-02-14T07:53:33;101327.81;;;5.38;100.00
23241;BME280;11789;53.482;9.862;2024-02-14T07:55:58;101321.09;;;5.43;100.00
23241;BME280;11789;53.482;9.862;2024-02-14T07:58:24;101321.13;;;5.44;100.00
23241;BME280;11789;53.482;9.862;2024-02-14T08:00:49;101322.13;;;5.50;100.00
23241;BME280;11789;53.482;9.862;2024-02-14T08:03:14;101323.03;;;5.52;100.00
23241;BME280;11789;53.482;9.862;2024-02-14T08:05:40;101330.03;;;5.57;100.00
23241;BME280;11789;53.482;9.862;2024-02-14T08:08:07;101329.25;;;5.60;100.00
23241;BME280;11789;53.482;9.862;2024-02-14T08:10:33;101312.19;;;5.62;100.00
23241;BME280;11789;53.482;9.862;2024-02-14T08:12:58;101319.13;;;5.64;100.00
23241;BME280;11789;53.482;9.862;2024-02-14T08:15:24;101313.28;;;5.70;100.00
23241;BME280;11789;53.482;9.862;2024-02-14T08:17:49;101320.12;;;5.71;100.00
23241;BME280;11789;53.482;9.862;2024-02-14T08:20:15;101319.38;;;5.75;100.00
23241;BME280;11789;53.482;9.862;2024-02-14T08:22:41;101320.22;;;5.74;100.00
23241;BME280;11789;53.482;9.862;2024-02-14T08:25:06;101314.28;;;5.77;100.00
23241;BME280;11789;53.482;9.862;2024-02-14T08:27:32;101322.06;;;5.78;100.00
23241;BME280;11789;53.482;9.862;2024-02-14T08:29:57;101316.91;;;5.78;100.00
23241;BME280;11789;53.482;9.862;2024-02-14T08:32:23;101325.50;;;5.80;100.00
23241;BME280;11789;53.482;9.862;2024-02-14T08:34:48;101320.53;;;5.86;100.00
23241;BME280;11789;53.482;9.862;2024-02-14T08:37:15;101324.81;;;5.87;100.00
23241;BME280;11789;53.482;9.862;2024-02-14T08:39:41;101323.28;;;5.92;100.00
23241;BME280;11789;53.482;9.862;2024-02-14T08:42:06;101316.41;;;5.91;100.00
23241;BME280;11789;53.482;9.862;2024-02-14T08:44:33;101330.97;;;5.92;100.00
23241;BME280;11789;53.482;9.862;2024-02-14T08:46:59;101323.38;;;5.95;100.00
23241;BME280;11789;53.482;9.862;2024-02-14T08:49:24;101318.41;;;6.03;100.00
23241;BME280;11789;53.482;9.862;2024-02-14T08:51:50;101321.06;;;6.06;100.00
23241;BME280;11789;53.482;9.862;2024-02-14T08:54:15;101326.19;;;6.06;100.00
23241;BME280;11789;53.482;9.862;2024-02-14T08:56:41;101331.38;;;6.08;100.00
23241;BME280;11789;53.482;9.862;2024-02-14T08:59:07;101325.47;;;6.12;100.00
23241;BME280;11789;53.482;9.862;2024-02-14T09:01:32;101318.75;;;6.17;100.00
23241;BME280;11789;53.482;9.862;2024-02-14T09:03:58;101325.63;;;6.18;100.00
23241;BME280;11789;53.482;9.862;2024-02-14T09:06:24;101330.84;;;6.21;100.00
23241;BME280;11789;53.482;9.862;2024-02-14T09:08:51;101336.13;;;6.27;100.00
23241;BME280;11789;53.482;9.862;2024-02-14T09:11:17;101336.22;;;6.30;100.00
23241;BME280;11789;53.482;9.862;2024-02-14T09:13:42;101328.63;;;6.35;100.00
23241;BME280;11789;53.482;9.862;2024-02-14T09:16:09;101333.88;;;6.39;100.00
23241;BME280;11789;53.482;9.862;2024-02-14T09:18:35;101334.84;;;6.44;100.00
23241;BME280;11789;53.482;9.862;2024-02-14T09:21:01;101330.72;;;6.51;100.00
23241;BME280;11789;53.482;9.862;2024-02-14T09:23:28;101331.66;;;6.55;100.00
23241;BME280;11789;53.482;9.862;2024-02-14T09:25:55;101326.66;;;6.61;100.00
23241;BME280;11789;53.482;9.862;2024-02-14T09:28:20;101333.75;;;6.71;100.00
23241;BME280;11789;53.482;9.862;2024-02-14T09:30:46;101337.41;;;6.82;100.00
23241;BME280;11789;53.482;9.862;2024-02-14T09:33:11;101327.34;;;6.91;100.00
23241;BME280;11789;53.482;9.862;2024-02-14T09:35:37;101336.00;;;6.95;100.00
23241;BME280;11789;53.482;9.862;2024-02-14T09:38:04;101340.22;;;6.93;100.00
23241;BME280;11789;53.482;9.862;2024-02-14T09:40:30;101336.78;;;6.92;100.00
23241;BME280;11789;53.482;9.862;2024-02-14T09:42:56;101335.88;;;6.90;100.00
23241;BME280;11789;53.482;9.862;2024-02-14T09:45:27;101342.88;;;6.96;100.00
23241;BME280;11789;53.482;9.862;2024-02-14T09:47:57;101338.59;;;6.98;100.00
23241;BME280;11789;53.482;9.862;2024-02-14T09:50:23;101341.25;;;7.01;100.00
23241;BME280;11789;53.482;9.862;2024-02-14T09:52:50;101349.97;;;7.08;100.00
23241;BME280;11789;53.482;9.862;2024-02-14T09:55:16;101340.62;;;7.13;100.00
23241;BME280;11789;53.482;9.862;2024-02-14T09:57:43;101337.31;;;7.18;100.00
23241;BME280;11789;53.482;9.862;2024-02-14T10:00:12;101340.00;;;7.23;100.00
23241;BME280;11789;53.482;9.862;2024-02-14T10:09:25;101348.75;;;7.33;100.00
23241;BME280;11789;53.482;9.862;2024-02-14T10:11:51;101345.44;;;7.38;100.00
23241;BME280;11789;53.482;9.862;2024-02-14T10:14:16;101348.03;;;7.40;100.00
23241;BME280;11789;53.482;9.862;2024-02-14T10:16:41;101351.56;;;7.45;100.00
23241;BME280;11789;53.482;9.862;2024-02-14T10:19:17;101352.53;;;7.50;100.00
23241;BME280;11789;53.482;9.862;2024-02-14T10:21:42;101352.59;;;7.53;100.00
23241;BME280;11789;53.482;9.862;2024-02-14T10:24:08;101356.97;;;7.57;100.00
23241;BME280;11789;53.482;9.862;2024-02-14T10:26:37;101361.38;;;7.63;100.00
23241;BME280;11789;53.482;9.862;2024-02-14T10:29:03;101362.34;;;7.69;100.00
23241;BME280;11789;53.482;9.862;2024-02-14T10:31:28;101364.12;;;7.73;100.00
23241;BME280;11789;53.482;9.862;2024-02-14T10:33:54;101366.72;;;7.75;100.00
23241;BME280;11789;53.482;9.862;2024-02-14T10:36:21;101364.22;;;7.76;100.00
23241;BME280;11789;53.482;9.862;2024-02-14T10:38:47;101359.94;;;7.77;100.00
23241;BME280;11789;53.482;9.862;2024-02-14T10:41:16;101363.38;;;7.77;100.00
23241;BME280;11789;53.482;9.862;2024-02-14T10:43:41;101365.97;;;7.79;100.00
23241;BME280;11789;53.482;9.862;2024-02-14T10:46:20;101369.41;;;7.79;100.00
23241;BME280;11789;53.482;9.862;2024-02-14T10:48:47;101370.31;;;7.82;100.00
23241;BME280;11789;53.482;9.862;2024-02-14T10:51:15;101370.31;;;7.83;100.00
23241;BME280;11789;53.482;9.862;2024-02-14T10:53:45;101374.62;;;7.84;100.00
23241;BME280;11789;53.482;9.862;2024-02-14T10:56:17;101375.56;;;7.86;100.00
23241;BME280;11789;53.482;9.862;2024-02-14T10:58:48;101370.44;;;7.89;100.00
23241;BME280;11789;53.482;9.862;2024-02-14T11:01:14;101378.22;;;7.92;100.00
23241;BME280;11789;53.482;9.862;2024-02-14T11:03:42;101372.31;;;7.96;100.00
23241;BME280;11789;53.482;9.862;2024-02-14T11:06:08;101377.56;;;8.02;100.00
23241;BME280;11789;53.482;9.862;2024-02-14T11:08:34;101372.44;;;8.05;100.00
23241;BME280;11789;53.482;9.862;2024-02-14T11:11:00;101375.94;;;8.07;100.00
23241;BME280;11789;53.482;9.862;2024-02-14T11:13:29;101375.09;;;8.09;100.00
23241;BME280;11789;53.482;9.862;2024-02-14T11:16:01;101377.72;;;8.12;100.00
23241;BME280;11789;53.482;9.862;2024-02-14T11:18:28;101376.00;;;8.12;100.00
23241;BME280;11789;53.482;9.862;2024-02-14T11:21:03;101373.44;;;8.14;100.00
23241;BME280;11789;53.482;9.862;2024-02-14T11:23:30;101378.66;;;8.17;100.00
23241;BME280;11789;53.482;9.862;2024-02-14T11:26:03;101381.28;;;8.20;100.00
23241;BME280;11789;53.482;9.862;2024-02-14T11:28:30;101377.00;;;8.20;100.00
23241;BME280;11789;53.482;9.862;2024-02-14T11:31:02;101377.84;;;8.21;100.00
23241;BME280;11789;53.482;9.862;2024-02-14T11:33:29;101381.28;;;8.20;100.00
23241;BME280;11789;53.482;9.862;2024-02-14T11:35:55;101383.84;;;8.20;100.00
23241;BME280;11789;53.482;9.862;2024-02-14T11:38:25;101385.66;;;8.24;100.00
23241;BME280;11789;53.482;9.862;2024-02-14T11:40:53;101382.22;;;8.25;100.00
23241;BME280;11789;53.482;9.862;2024-02-14T11:43:22;101390.88;;;8.27;100.00
23241;BME280;11789;53.482;9.862;2024-02-14T11:45:48;101387.47;;;8.29;100.00
23241;BME280;11789;53.482;9.862;2024-02-14T11:48:20;101394.34;;;8.30;100.00
23241;BME280;11789;53.482;9.862;2024-02-14T11:50:46;101395.28;;;8.36;100.00
23241;BME280;11789;53.482;9.862;2024-02-14T11:53:13;101396.22;;;8.38;100.00
23241;BME280;11789;53.482;9.862;2024-02-14T11:55:43;101398.88;;;8.42;100.00
23241;BME280;11789;53.482;9.862;2024-02-14T11:58:12;101401.47;;;8.42;100.00
23241;BME280;11789;53.482;9.862;2024-02-14T12:00:43;101395.47;;;8.45;100.00
23241;BME280;11789;53.482;9.862;2024-02-14T12:03:15;101400.72;;;8.49;100.00
23241;BME280;11789;53.482;9.862;2024-02-14T12:05:42;101405.84;;;8.49;100.00
23241;BME280;11789;53.482;9.862;2024-02-14T12:08:09;101404.16;;;8.51;100.00
23241;BME280;11789;53.482;9.862;2024-02-14T12:10:36;101397.31;;;8.52;100.00
23241;BME280;11789;53.482;9.862;2024-02-14T12:13:09;101403.34;;;8.52;100.00
23241;BME280;11789;53.482;9.862;2024-02-14T12:15:55;101406.81;;;8.56;100.00
23241;BME280;11789;53.482;9.862;2024-02-14T12:18:20;101400.00;;;8.58;100.00
23241;BME280;11789;53.482;9.862;2024-02-14T12:20:46;101408.66;;;8.63;100.00
23241;BME280;11789;53.482;9.862;2024-02-14T12:23:18;101405.31;;;8.67;100.00
23241;BME280;11789;53.482;9.862;2024-02-14T12:25:47;101407.03;;;8.70;100.00
23241;BME280;11789;53.482;9.862;2024-02-14T12:28:16;101403.66;;;8.72;100.00
23241;BME280;11789;53.482;9.862;2024-02-14T12:30:49;101403.66;;;8.72;100.00
23241;BME280;11789;53.482;9.862;2024-02-14T12:33:17;101412.22;;;8.71;100.00
23241;BME280;11789;53.482;9.862;2024-02-14T12:35:47;101412.19;;;8.70;100.00
23241;BME280;11789;53.482;9.862;2024-02-14T12:38:14;101419.09;;;8.71;100.00
23241;BME280;11789;53.482;9.862;2024-02-14T12:40:40;101416.56;;;8.74;100.00
23241;BME280;11789;53.482;9.862;2024-02-14T12:43:14;101421.78;;;8.77;100.00
23241;BME280;11789;53.482;9.862;2024-02-14T12:45:42;101418.28;;;8.75;100.00
23241;BME280;11789;53.482;9.862;2024-02-14T12:48:09;101415.78;;;8.78;100.00
23241;BME280;11789;53.482;9.862;2024-02-14T12:50:35;101417.53;;;8.80;100.00
23241;BME280;11789;53.482;9.862;2024-02-14T12:53:12;101417.56;;;8.82;100.00